Pagrindinis puslapis
METAR-TAF:

METAR-TAF

Oro uostai :

Kramfors, Švedija

platuma: 63-03N, ilguma: 017-46E, Aukštis: 10 m

Dabartinis oras

Ataskaita buvo paskelbta 12 minutes, ne 14:20 UTC
Vėjas 7 kt iš Šiaurės Vakarų
Temperatūra 1°C
Drėgmė 55%
Slėgis 1001 hPa
Matomumas 10 km arba daugiau

METAR: ESNK 191420Z AUTO 32007KT 9999 OVC042/// 01/M07 Q1001

Laikas: 15:32 (14:32 UTC)

Prognozė

Ataskaita buvo paskelbta 1 valandą ir 2 minutes, ne 13:30 UTC
Prognozė galioja nuo 19 metu 14 UTC su 19 metu 19 UTC
Vėjas 7 kt iš Šiaurės Vakarų
Matomumas 10 km arba daugiau
nėra debesų žemiau 1500 m ir nėra kamuolinių lietaus debesų

TAF: ESNK 191330Z 1914/1919 32007KT CAVOK

Orai ataskaitas ir orų prognozės (METAR, TAF).

turimą stotys yra geltonos ir raudonos taškus žemėlapyje.

Perkelti pele per norėdami pamatyti stoties vardą.

Tada spustelėkite, norėdami matyti oro stebėjimo ir prognozės.

Norėdami pakeisti žemėlapį: spustelėkite ant žalios mygtukų su juodo kryžiaus žemyn,; žalią mygtuką su brūkšneliu, jei norite nutolinti; arba žalių rodyklių gretimoms žemėlapius.


METAR-TAF: